Time;durP1;ratioP1;P1;durP2;ratioP2;P2;SDS_P1;SDS_P2;PMS_P1;PMS_P2;Temp;Humidity;BMP_temperature;BMP_pressure;BME280_temperature;BME280_humidity;BME280_pressure;Samples;Min_cycle;Max_cycle;Signal;HPM_P1;HPM_P2
2023/05/11 00:00:51;;;;;;;37.67;16.92;;;;;;;12.34;100.00;101436.59;5060929;28;20048;-45
2023/05/11 00:03:16;;;;;;;45.30;17.83;;;;;;;12.35;100.00;101435.56;5054435;28;20053;-44
2023/05/11 00:05:46;;;;;;;47.17;18.02;;;;;;;12.34;100.00;101442.81;5063477;28;20033;-48
2023/05/11 00:08:11;;;;;;;40.63;16.50;;;;;;;12.32;100.00;101436.75;5069086;28;20032;-47
2023/05/11 00:10:37;;;;;;;42.95;17.95;;;;;;;12.28;100.00;101441.69;5061741;28;20071;-46
2023/05/11 00:13:02;;;;;;;45.60;18.13;;;;;;;12.29;100.00;101434.44;5063423;28;20048;-47
2023/05/11 00:15:28;;;;;;;43.42;18.25;;;;;;;12.24;100.00;101442.22;5053640;28;20044;-43
2023/05/11 00:17:54;;;;;;;49.20;18.35;;;;;;;12.23;100.00;101438.69;5061428;28;20103;-46
2023/05/11 00:20:20;;;;;;;49.00;19.63;;;;;;;12.22;100.00;101438.88;5076459;28;20109;-45
2023/05/11 00:22:46;;;;;;;48.88;19.58;;;;;;;12.21;100.00;101442.56;5057072;28;20040;-47
2023/05/11 00:25:11;;;;;;;44.70;18.20;;;;;;;12.20;100.00;101440.91;5055960;28;20062;-44
2023/05/11 00:27:37;;;;;;;44.95;18.05;;;;;;;12.20;100.00;101440.91;5069792;28;20470;-46
2023/05/11 00:30:02;;;;;;;44.75;18.10;;;;;;;12.23;100.00;101437.84;5062687;28;20529;-43
2023/05/11 00:32:28;;;;;;;46.58;18.23;;;;;;;12.20;100.00;101436.34;5069346;28;20430;-46
2023/05/11 00:34:53;;;;;;;46.08;18.15;;;;;;;12.20;100.00;101440.91;5069730;28;20032;-45
2023/05/11 00:37:18;;;;;;;47.65;18.63;;;;;;;12.20;100.00;101446.31;5052512;28;20116;-49
2023/05/11 00:39:44;;;;;;;43.40;17.60;;;;;;;12.21;100.00;101439.88;5050114;28;20014;-43
2023/05/11 00:42:10;;;;;;;46.05;18.70;;;;;;;12.20;100.00;101447.13;5049965;28;20041;-45
2023/05/11 00:44:35;;;;;;;49.33;18.80;;;;;;;12.24;100.00;101448.47;5048641;28;20400;-43
2023/05/11 00:47:00;;;;;;;46.70;17.77;;;;;;;12.31;100.00;101437.78;5068545;28;20024;-48
2023/05/11 00:49:26;;;;;;;43.80;17.88;;;;;;;12.35;100.00;101451.75;5063562;28;20563;-46
2023/05/11 00:51:52;;;;;;;47.80;18.50;;;;;;;12.33;100.00;101443.84;5068360;28;20029;-45
2023/05/11 00:54:17;;;;;;;52.17;19.77;;;;;;;12.32;100.00;101442.16;5070269;28;20051;-46
2023/05/11 00:56:43;;;;;;;38.75;17.17;;;;;;;12.32;100.00;101449.41;5067153;28;20141;-43
2023/05/11 00:59:08;;;;;;;44.72;18.55;;;;;;;12.27;100.00;101441.88;5059234;28;20526;-44
2023/05/11 01:01:34;;;;;;;48.78;18.35;;;;;;;12.20;100.00;101446.31;5050232;28;20046;-47
2023/05/11 01:04:02;;;;;;;44.60;17.80;;;;;;;12.17;100.00;101442.09;5047383;28;20049;-42
2023/05/11 01:07:02;;;;;;;51.67;17.95;;;;;;;12.14;100.00;101450.56;5068051;28;20437;-45
2023/05/11 01:09:52;;;;;;;62.10;21.85;;;;;;;12.04;100.00;101447.25;5055973;28;20041;-47
2023/05/11 01:12:35;;;;;;;54.85;19.48;;;;;;;12.01;100.00;101458.38;5073100;28;20475;-46
2023/05/11 01:15:38;;;;;;;60.05;21.45;;;;;;;11.99;100.00;101452.31;5058100;28;20073;-41
2023/05/11 01:18:44;;;;;;;63.85;22.35;;;;;;;11.96;100.00;101461.59;5063388;28;20099;-46
2023/05/11 01:21:10;;;;;;;57.80;21.48;;;;;;;11.99;100.00;101460.41;5050831;28;20049;-46
2023/05/11 01:23:41;;;;;;;53.90;19.80;;;;;;;11.98;100.00;101464.09;5051250;28;20096;-48
2023/05/11 01:26:16;;;;;;;54.90;20.40;;;;;;;12.02;100.00;101460.88;5059592;28;20578;-43
2023/05/11 01:28:49;;;;;;;57.92;21.80;;;;;;;11.91;100.00;101460.44;5059441;28;20037;-42
2023/05/11 01:31:18;;;;;;;54.40;20.95;;;;;;;11.92;100.00;101462.97;5068906;28;20032;-45
2023/05/11 01:33:57;;;;;;;58.70;22.15;;;;;;;11.86;100.00;101461.81;5058484;28;20037;-45
2023/05/11 01:36:27;;;;;;;61.47;23.45;;;;;;;11.81;100.00;101463.31;5067712;28;20032;-44
2023/05/11 01:38:53;;;;;;;62.90;23.23;;;;;;;11.80;100.00;101467.88;5039837;28;20089;-48
2023/05/11 01:41:21;;;;;;;64.80;22.52;;;;;;;11.80;100.00;101467.03;5065943;28;20538;-44
2023/05/11 01:43:57;;;;;;;65.40;22.33;;;;;;;11.83;100.00;101466.69;5068414;28;20029;-47
2023/05/11 01:46:25;;;;;;;70.25;23.85;;;;;;;11.83;100.00;101466.69;5053671;28;20438;-46
2023/05/11 01:48:51;;;;;;;67.70;23.52;;;;;;;11.82;100.00;101462.28;5055090;28;20033;-45
2023/05/11 01:51:18;;;;;;;65.88;25.13;;;;;;;11.82;100.00;101471.25;5067745;28;20108;-44
2023/05/11 01:53:44;;;;;;;64.97;23.35;;;;;;;11.82;100.00;101473.06;5071508;28;20024;-43
2023/05/11 01:56:10;;;;;;;69.90;25.25;;;;;;;11.82;100.00;101481.16;5066269;28;20037;-45
2023/05/11 01:58:36;;;;;;;71.20;25.08;;;;;;;11.83;100.00;101477.47;5064744;28;20032;-43
2023/05/11 02:01:02;;;;;;;80.68;26.08;;;;;;;11.85;100.00;101472.75;5041505;28;20048;-46
2023/05/11 02:03:30;;;;;;;80.40;26.45;;;;;;;11.88;100.00;101480.53;5061651;28;20028;-44
2023/05/11 02:05:59;;;;;;;78.40;28.42;;;;;;;11.89;100.00;101470.56;5069235;28;20135;-47
2023/05/11 02:08:26;;;;;;;80.75;27.20;;;;;;;11.91;100.00;101479.34;5070682;28;20028;-47
2023/05/11 02:10:52;;;;;;;88.47;29.80;;;;;;;11.90;100.00;101478.50;5071533;28;20428;-43
2023/05/11 02:13:18;;;;;;;76.95;26.63;;;;;;;11.93;100.00;101477.28;5070843;28;20031;-43
2023/05/11 02:15:44;;;;;;;80.18;27.65;;;;;;;11.95;100.00;101478.78;5069370;28;20041;-44
2023/05/11 02:18:13;;;;;;;81.90;29.02;;;;;;;11.94;100.00;101473.59;5060687;28;20065;-44
2023/05/11 02:20:41;;;;;;;95.45;30.67;;;;;;;11.94;100.00;101473.59;5057411;28;20066;-47
2023/05/11 02:23:07;;;;;;;80.30;27.85;;;;;;;11.98;100.00;101481.16;5059501;28;20094;-43
2023/05/11 02:25:33;;;;;;;80.85;27.30;;;;;;;12.02;100.00;101477.06;5062217;28;20033;-44
2023/05/11 02:27:58;;;;;;;82.93;29.15;;;;;;;11.98;100.00;101481.16;5063407;28;20177;-47
2023/05/11 02:30:26;;;;;;;80.40;29.70;;;;;;;12.01;100.00;101474.56;5067057;28;20028;-45
2023/05/11 02:32:54;;;;;;;85.68;30.30;;;;;;;12.04;100.00;101472.34;5057081;28;20028;-45
2023/05/11 02:35:23;;;;;;;86.18;30.30;;;;;;;12.01;100.00;101469.19;5066095;28;20028;-44
2023/05/11 02:37:49;;;;;;;92.47;31.25;;;;;;;11.99;100.00;101472.03;5066109;28;20013;-44
2023/05/11 02:40:16;;;;;;;91.47;31.08;;;;;;;11.95;100.00;101477.94;5070723;28;20371;-43
2023/05/11 02:42:42;;;;;;;88.90;31.75;;;;;;;11.96;100.00;101476.94;5059644;28;20544;-45
2023/05/11 02:45:08;;;;;;;88.63;32.35;;;;;;;11.97;100.00;101478.63;5050648;28;20037;-47
2023/05/11 02:47:38;;;;;;;98.78;34.38;;;;;;;11.94;100.00;101478.97;5052157;28;20029;-43
2023/05/11 02:50:05;;;;;;;100.88;32.95;;;;;;;11.92;100.00;101484.53;5070828;28;20494;-44
2023/05/11 02:52:31;;;;;;;88.63;32.90;;;;;;;11.93;100.00;101483.53;5056093;28;20048;-46
2023/05/11 02:54:59;;;;;;;91.38;31.85;;;;;;;11.98;100.00;101483.00;5058573;28;20025;-46
2023/05/11 02:57:24;;;;;;;96.43;32.08;;;;;;;12.04;100.00;101482.31;5051989;28;20151;-48
2023/05/11 02:59:51;;;;;;;95.07;32.35;;;;;;;12.04;100.00;101475.06;5055590;28;20411;-47
2023/05/11 03:02:17;;;;;;;87.90;29.77;;;;;;;12.07;100.00;101479.25;5059584;28;20074;-43
2023/05/11 03:04:42;;;;;;;91.38;30.30;;;;;;;12.10;100.00;101478.91;5070884;28;20020;-44
2023/05/11 03:07:08;;;;;;;82.93;29.73;;;;;;;12.09;100.00;101477.22;5061830;28;20036;-48
2023/05/11 03:09:33;;;;;;;86.90;30.77;;;;;;;12.07;100.00;101479.25;5067456;28;20108;-46
2023/05/11 03:11:59;;;;;;;89.65;29.88;;;;;;;12.11;100.00;101472.47;5061225;28;20053;-43
2023/05/11 03:14:26;;;;;;;85.85;29.55;;;;;;;12.11;100.00;101477.03;5041785;28;20403;-45
2023/05/11 03:16:51;;;;;;;87.28;28.88;;;;;;;12.03;100.00;101470.69;5060053;28;20438;-44
2023/05/11 03:19:17;;;;;;;86.60;29.05;;;;;;;12.03;100.00;101477.91;5062882;28;20036;-44
2023/05/11 03:21:42;;;;;;;81.38;28.45;;;;;;;12.12;100.00;101471.47;5067169;28;20041;-45
2023/05/11 03:24:08;;;;;;;89.82;28.15;;;;;;;12.02;100.00;101471.69;5051112;28;20033;-45
2023/05/11 03:26:35;;;;;;;86.25;29.25;;;;;;;11.98;100.00;101464.97;5049310;28;20044;-45
2023/05/11 03:29:01;;;;;;;83.97;28.55;;;;;;;11.95;100.00;101468.00;5049625;28;20025;-46
2023/05/11 03:31:27;;;;;;;88.88;29.00;;;;;;;11.94;100.00;101474.41;5044925;28;20033;-45
2023/05/11 03:33:52;;;;;;;87.43;29.40;;;;;;;11.90;100.00;101473.09;5055789;28;20392;-45
2023/05/11 03:36:18;;;;;;;82.10;27.80;;;;;;;11.87;100.00;101478.81;5058347;28;20039;-44
2023/05/11 03:38:44;;;;;;;84.80;28.75;;;;;;;11.92;100.00;101471.06;5062689;28;20521;-45
2023/05/11 03:41:16;;;;;;;86.53;28.35;;;;;;;11.88;100.00;101467.03;5048169;28;20061;-48
2023/05/11 03:43:44;;;;;;;90.57;28.23;;;;;;;11.89;100.00;101466.00;5052453;28;20029;-43
2023/05/11 03:46:10;;;;;;;95.40;28.80;;;;;;;11.90;100.00;101462.31;5056224;28;20028;-46
2023/05/11 03:48:37;;;;;;;85.47;27.85;;;;;;;11.93;100.00;101471.88;5065907;28;20383;-45
2023/05/11 03:51:03;;;;;;;89.18;29.70;;;;;;;11.95;100.00;101470.69;5062468;28;20039;-44
2023/05/11 03:53:29;;;;;;;89.95;28.95;;;;;;;11.94;100.00;101468.19;5050911;28;20457;-45
2023/05/11 03:55:54;;;;;;;85.28;29.02;;;;;;;11.93;100.00;101467.34;5057646;28;20128;-45
2023/05/11 03:58:20;;;;;;;89.65;29.27;;;;;;;11.92;100.00;101454.88;5068650;28;20047;-47
2023/05/11 04:00:46;;;;;;;85.75;28.45;;;;;;;11.91;100.00;101469.38;5062119;28;20045;-44
2023/05/11 04:03:12;;;;;;;88.68;29.10;;;;;;;11.92;100.00;101471.06;5058359;28;20147;-45
2023/05/11 04:05:38;;;;;;;90.10;30.15;;;;;;;11.93;100.00;101466.50;5049634;28;20104;-48
2023/05/11 04:08:04;;;;;;;97.80;30.08;;;;;;;11.91;100.00;101469.38;5033974;28;20038;-49
2023/05/11 04:10:29;;;;;;;103.55;31.83;;;;;;;11.91;100.00;101473.94;5051217;28;20379;-45
2023/05/11 04:12:55;;;;;;;99.07;30.40;;;;;;;11.93;100.00;101477.28;5047484;28;20091;-43
2023/05/11 04:15:20;;;;;;;97.40;29.25;;;;;;;11.92;100.00;101476.44;5060236;28;20141;-48
2023/05/11 04:17:46;;;;;;;106.63;31.85;;;;;;;11.94;100.00;101474.41;5048057;28;20075;-43
2023/05/11 04:20:11;;;;;;;103.70;29.67;;;;;;;11.94;100.00;101487.91;5056000;28;21315;-44
2023/05/11 04:22:38;;;;;;;112.28;31.75;;;;;;;11.95;100.00;101480.66;5073790;28;20029;-45
2023/05/11 04:25:03;;;;;;;100.57;31.42;;;;;;;11.97;100.00;101487.56;5083616;28;20506;-45
2023/05/11 04:27:33;;;;;;;101.25;30.23;;;;;;;11.99;100.00;101490.09;5069148;28;20025;-49
2023/05/11 04:29:58;;;;;;;94.05;29.80;;;;;;;12.00;100.00;101489.91;5070773;28;20239;-44
2023/05/11 04:32:25;;;;;;;96.25;31.05;;;;;;;12.00;100.00;101489.91;5070122;28;20036;-44
2023/05/11 04:34:50;;;;;;;100.60;30.73;;;;;;;12.01;100.00;101496.16;5068329;28;20086;-44
2023/05/11 04:37:16;;;;;;;104.72;31.30;;;;;;;12.06;100.00;101494.59;5070301;28;20431;-47
2023/05/11 04:39:41;;;;;;;99.80;32.65;;;;;;;12.13;100.00;101499.28;5062021;28;20108;-43
2023/05/11 04:42:06;;;;;;;100.32;32.38;;;;;;;12.12;100.00;101494.91;5057940;28;20460;-46
2023/05/11 04:44:32;;;;;;;95.57;31.40;;;;;;;12.13;100.00;101494.72;5054246;28;20040;-45
2023/05/11 04:46:58;;;;;;;99.50;33.33;;;;;;;12.16;100.00;101496.22;5072542;28;20348;-43
2023/05/11 04:49:23;;;;;;;107.75;34.50;;;;;;;12.20;100.00;101494.88;5068616;28;20055;-44
2023/05/11 04:51:49;;;;;;;108.97;34.45;;;;;;;12.23;100.00;101500.75;5058655;28;20124;-48
2023/05/11 04:54:14;;;;;;;97.70;32.72;;;;;;;12.24;100.00;101501.59;5054528;28;20132;-44
2023/05/11 04:56:41;;;;;;;90.82;32.67;;;;;;;12.26;100.00;101495.00;5053886;28;20475;-48
2023/05/11 04:59:07;;;;;;;103.00;33.50;;;;;;;12.19;100.00;101498.56;5052042;28;20041;-46
2023/05/11 05:01:32;;;;;;;96.10;33.15;;;;;;;12.17;100.00;101497.94;5061167;28;20445;-47
2023/05/11 05:03:58;;;;;;;96.80;32.40;;;;;;;12.18;100.00;101489.66;5061314;28;20059;-48
2023/05/11 05:06:23;;;;;;;97.22;33.17;;;;;;;12.19;100.00;101498.56;5072742;28;20129;-51
2023/05/11 05:08:48;;;;;;;108.70;35.30;;;;;;;12.21;100.00;101499.25;5070766;28;20027;-52
2023/05/11 05:11:14;;;;;;;102.60;33.13;;;;;;;12.21;100.00;101496.53;5073980;28;20028;-51
2023/05/11 05:13:41;;;;;;;89.38;31.90;;;;;;;12.24;100.00;101505.16;5056234;28;20388;-47
2023/05/11 05:16:06;;;;;;;93.68;32.33;;;;;;;12.19;100.00;101503.97;5072917;28;20143;-48
2023/05/11 05:18:33;;;;;;;103.13;33.97;;;;;;;12.19;100.00;101507.53;5069781;28;20024;-49
2023/05/11 05:20:59;;;;;;;94.18;30.40;;;;;;;12.23;100.00;101510.72;5056097;28;20028;-49
2023/05/11 05:23:24;;;;;;;102.97;31.83;;;;;;;12.22;100.00;101517.13;5056534;28;20047;-50
2023/05/11 05:25:50;;;;;;;98.13;29.98;;;;;;;12.25;100.00;101514.09;5072967;28;20025;-47
2023/05/11 05:28:16;;;;;;;97.72;32.22;;;;;;;12.25;100.00;101524.88;5073195;28;20027;-49
2023/05/11 05:30:42;;;;;;;92.57;29.75;;;;;;;12.30;100.00;101522.50;5052276;28;20032;-46
2023/05/11 05:33:07;;;;;;;96.00;30.92;;;;;;;12.30;100.00;101530.59;5065556;28;20033;-46
2023/05/11 05:35:34;;;;;;;97.78;31.15;;;;;;;12.29;100.00;101523.50;5057990;28;20033;-50
2023/05/11 05:38:00;;;;;;;96.20;31.13;;;;;;;12.34;100.00;101539.16;5057239;28;20367;-49
2023/05/11 05:40:25;;;;;;;95.18;29.92;;;;;;;12.36;100.00;101535.28;5054827;28;20033;-47
2023/05/11 05:42:51;;;;;;;100.32;30.20;;;;;;;12.35;100.00;101540.84;5053307;28;20601;-49
2023/05/11 05:45:16;;;;;;;100.50;29.92;;;;;;;12.37;100.00;101547.75;5054577;28;20371;-44
2023/05/11 05:47:42;;;;;;;107.47;31.02;;;;;;;12.33;100.00;101543.72;5054414;28;20349;-46
2023/05/11 05:50:07;;;;;;;119.13;35.95;;;;;;;12.32;100.00;101549.28;5053474;28;20124;-45
2023/05/11 05:52:34;;;;;;;119.13;33.35;;;;;;;12.30;100.00;101552.19;5054239;28;20182;-45
2023/05/11 05:55:00;;;;;;;107.57;33.13;;;;;;;12.24;100.00;101545.63;5052683;28;20021;-46
2023/05/11 05:57:25;;;;;;;111.28;32.75;;;;;;;12.32;100.00;101552.00;5053951;28;20060;-45
2023/05/11 05:59:50;;;;;;;104.60;32.25;;;;;;;12.44;100.00;101561.38;5062051;28;20040;-44
2023/05/11 06:02:16;;;;;;;106.28;32.47;;;;;;;12.53;100.00;101560.31;5072335;28;20382;-49
2023/05/11 06:04:42;;;;;;;113.63;33.67;;;;;;;12.53;100.00;101560.31;5060359;28;20104;-44
2023/05/11 06:07:07;;;;;;;109.53;33.28;;;;;;;12.59;100.00;101565.03;5052493;28;20494;-49
2023/05/11 06:09:32;;;;;;;113.10;35.22;;;;;;;12.67;100.00;101561.44;5057577;28;20066;-47
2023/05/11 06:11:58;;;;;;;103.47;33.13;;;;;;;12.78;100.00;101569.13;5062336;28;20017;-48
2023/05/11 06:14:23;;;;;;;112.57;34.92;;;;;;;12.86;100.00;101570.94;5051570;28;20102;-47
2023/05/11 06:16:49;;;;;;;96.63;31.48;;;;;;;12.70;100.00;101574.56;5052673;28;20037;-49
2023/05/11 06:19:14;;;;;;;104.07;33.33;;;;;;;12.59;100.00;101564.19;5052271;28;20055;-45
2023/05/11 06:21:44;;;;;;;108.43;33.28;;;;;;;12.62;100.00;101559.25;5055354;28;20491;-47
2023/05/11 06:24:10;;;;;;;119.32;36.05;;;;;;;12.69;100.00;101557.53;5053691;28;20044;-48
2023/05/11 06:26:36;;;;;;;112.75;35.63;;;;;;;12.78;100.00;101557.47;5053430;28;20041;-47
2023/05/11 06:29:01;;;;;;;122.05;34.70;;;;;;;12.82;100.00;101570.47;5052022;28;20246;-46
2023/05/11 06:31:28;;;;;;;115.95;34.30;;;;;;;12.84;100.00;101556.75;5052188;28;20095;-49
2023/05/11 06:33:56;;;;;;;108.72;35.38;;;;;;;12.80;100.00;101567.09;5052520;28;20439;-47
2023/05/11 06:36:22;;;;;;;114.55;34.67;;;;;;;12.71;100.00;101565.44;5057891;28;20029;-46
2023/05/11 06:38:47;;;;;;;112.70;35.22;;;;;;;12.66;100.00;101557.03;5073404;28;20515;-45
2023/05/11 06:41:13;;;;;;;116.85;36.10;;;;;;;12.72;100.00;101553.63;5058771;28;20048;-49
2023/05/11 06:43:38;;;;;;;109.30;35.78;;;;;;;12.88;100.00;101558.94;5053767;28;20021;-46
2023/05/11 06:46:04;;;;;;;110.63;34.17;;;;;;;12.93;100.00;101559.22;5062283;28;20031;-47
2023/05/11 06:48:30;;;;;;;125.03;36.97;;;;;;;13.00;100.00;101558.50;5057033;28;20403;-45
2023/05/11 06:50:56;;;;;;;113.13;35.45;;;;;;;13.15;100.00;101554.81;5065922;28;20033;-47
2023/05/11 06:53:22;;;;;;;117.80;36.92;;;;;;;13.19;100.00;101555.28;5050114;28;20029;-46
2023/05/11 06:55:48;;;;;;;119.43;36.25;;;;;;;13.19;100.00;101563.41;5052152;28;20029;-48
2023/05/11 06:58:13;;;;;;;108.35;35.80;;;;;;;13.22;100.00;101559.50;5052027;28;20356;-46
2023/05/11 07:00:39;;;;;;;110.75;35.72;;;;;;;13.34;100.00;101556.22;5054241;28;20108;-46
2023/05/11 07:03:06;;;;;;;117.85;35.00;;;;;;;13.43;100.00;101558.84;5065525;28;20479;-49
2023/05/11 07:05:31;;;;;;;105.45;34.65;;;;;;;13.58;100.00;101559.72;5052161;28;20550;-48
2023/05/11 07:07:57;;;;;;;117.90;36.38;;;;;;;13.72;100.00;101560.78;5050872;28;20083;-45
2023/05/11 07:10:22;;;;;;;115.43;37.38;;;;;;;13.73;100.00;101544.34;5051542;28;20024;-43
2023/05/11 07:12:48;;;;;;;111.22;36.22;;;;;;;13.67;100.00;101555.91;5055574;28;20039;-46
2023/05/11 07:15:14;;;;;;;116.47;35.40;;;;;;;13.70;100.00;101552.00;5066693;28;20032;-47
2023/05/11 07:17:39;;;;;;;113.70;35.90;;;;;;;13.78;100.00;101549.22;5054263;28;20136;-48
2023/05/11 07:20:06;;;;;;;122.03;37.45;;;;;;;13.74;100.00;101553.28;5069280;28;20149;-47
2023/05/11 07:22:31;;;;;;;117.95;38.03;;;;;;;13.72;100.00;101552.66;5053771;28;20183;-45
2023/05/11 07:24:56;;;;;;;116.53;36.60;;;;;;;13.75;100.00;101558.53;5070489;28;20017;-46
2023/05/11 07:27:22;;;;;;;119.22;36.88;;;;;;;13.80;100.00;101558.81;5070313;28;20328;-46
2023/05/11 07:29:48;;;;;;;112.57;36.97;;;;;;;13.75;100.00;101569.34;5071387;28;20040;-44
2023/05/11 07:32:13;;;;;;;107.60;36.25;;;;;;;13.68;100.00;101565.69;5070041;28;20021;-45
2023/05/11 07:34:40;;;;;;;103.93;34.55;;;;;;;13.73;100.00;101563.28;5071291;28;20478;-45
2023/05/11 07:37:07;;;;;;;114.38;36.63;;;;;;;13.73;100.00;101557.03;5051558;28;20538;-46
2023/05/11 07:39:32;;;;;;;106.63;33.50;;;;;;;13.66;100.00;101559.63;5050664;28;20025;-44
2023/05/11 07:41:58;;;;;;;112.45;35.83;;;;;;;13.66;100.00;101562.34;5053120;28;20362;-43
2023/05/11 07:44:23;;;;;;;119.22;36.47;;;;;;;13.64;100.00;101556.28;5049499;28;20040;-44
2023/05/11 07:46:49;;;;;;;108.43;36.53;;;;;;;13.59;100.00;101562.25;5068255;28;20029;-45
2023/05/11 07:49:14;;;;;;;120.75;35.38;;;;;;;13.65;100.00;101570.66;5068153;28;20557;-45
2023/05/11 07:51:39;;;;;;;114.57;37.13;;;;;;;13.79;100.00;101562.53;5066847;28;20470;-48
2023/05/11 07:54:05;;;;;;;108.93;34.72;;;;;;;14.12;100.00;101566.75;5070719;28;20020;-44
2023/05/11 07:56:30;;;;;;;103.72;34.55;;;;;;;14.28;100.00;101559.25;5069303;28;20036;-46
2023/05/11 07:58:56;;;;;;;95.05;35.22;;;;;;;14.50;100.00;101553.88;5068809;28;20055;-44
2023/05/11 08:01:21;;;;;;;103.00;33.70;;;;;;;14.36;100.00;101547.47;5061497;28;20021;-44
2023/05/11 08:03:47;;;;;;;89.68;32.80;;;;;;;14.68;100.00;101540.78;5069171;28;20391;-44
2023/05/11 08:06:12;;;;;;;97.78;34.72;;;;;;;14.76;100.00;101547.13;5067704;28;20392;-45
2023/05/11 08:08:37;;;;;;;96.53;33.58;;;;;;;15.08;100.00;101541.19;5068622;28;20029;-46
2023/05/11 08:11:04;;;;;;;92.85;32.80;;;;;;;15.44;100.00;101534.00;5068622;28;20083;-45
2023/05/11 08:13:30;;;;;;;88.72;30.65;;;;;;;15.56;100.00;101535.97;5069895;28;20020;-46
2023/05/11 08:15:56;;;;;;;93.32;32.78;;;;;;;15.67;100.00;101536.44;5064924;28;20035;-44
2023/05/11 08:18:21;;;;;;;94.32;40.45;;;;;;;15.65;100.00;101536.63;5062128;28;20058;-45
2023/05/11 08:20:46;;;;;;;83.72;32.85;;;;;;;15.80;100.00;101528.44;5070321;28;20029;-44
2023/05/11 08:23:16;;;;;;;90.78;33.83;;;;;;;15.73;100.00;101535.69;5068713;28;20427;-46
2023/05/11 08:25:48;;;;;;;83.47;31.52;;;;;;;15.58;100.00;101531.16;5066924;28;20031;-47
2023/05/11 08:28:13;;;;;;;105.45;37.97;;;;;;;15.44;100.00;101531.28;5070482;28;20056;-47
2023/05/11 08:30:39;;;;;;;84.60;31.65;;;;;;;15.29;100.00;101526.75;5066193;28;20105;-46
2023/05/11 08:33:04;;;;;;;81.82;31.60;;;;;;;15.27;100.00;101525.28;5070029;28;20031;-46
2023/05/11 08:35:29;;;;;;;79.28;31.55;;;;;;;15.76;100.00;101519.81;5068168;28;20074;-43
2023/05/11 08:37:55;;;;;;;82.38;31.40;;;;;;;15.94;100.00;101519.31;5069757;28;20062;-49
2023/05/11 08:40:20;;;;;;;83.47;31.67;;;;;;;15.78;100.00;101508.78;5069993;28;20107;-44
2023/05/11 08:42:47;;;;;;;75.78;31.88;;;;;;;15.73;100.00;101509.38;5050116;28;20097;-47
2023/05/11 08:45:14;;;;;;;79.28;30.45;;;;;;;15.91;100.00;101513.44;5017121;28;20071;-44
2023/05/11 08:47:40;;;;;;;72.15;30.10;;;;;;;16.08;100.00;101514.78;5088595;28;20487;-44
2023/05/11 08:50:06;;;;;;;76.38;32.38;;;;;;;15.89;100.00;101518.22;5088989;28;20024;-44
2023/05/11 08:52:31;;;;;;;80.10;32.90;;;;;;;15.72;100.00;101524.00;5059570;28;20427;-44
2023/05/11 08:54:57;;;;;;;72.15;32.92;;;;;;;15.31;100.00;101522.00;5050002;28;20029;-49
2023/05/11 08:57:22;;;;;;;80.20;32.10;;;;;;;15.19;100.00;101525.44;5068042;28;20111;-45
2023/05/11 08:59:48;;;;;;;73.30;31.50;;;;;;;15.09;100.00;101531.19;5070280;28;20048;-47
2023/05/11 09:02:16;;;;;;;75.93;30.80;;;;;;;15.01;100.00;101529.47;5073772;28;20033;-46
2023/05/11 09:04:43;;;;;;;69.28;30.30;;;;;;;15.00;100.00;101541.31;5068254;28;20032;-47
2023/05/11 09:07:10;;;;;;;77.82;30.27;;;;;;;14.97;100.00;101539.00;5069047;28;20453;-47
2023/05/11 09:09:36;;;;;;;72.63;29.05;;;;;;;14.98;100.00;101543.41;5069736;28;20467;-44
2023/05/11 09:12:01;;;;;;;80.85;30.92;;;;;;;14.96;100.00;101553.59;5067743;28;20047;-45
2023/05/11 09:14:27;;;;;;;82.97;31.52;;;;;;;14.94;100.00;101550.25;5049747;28;20457;-44
2023/05/11 09:16:53;;;;;;;78.50;29.88;;;;;;;14.88;100.00;101556.44;5062063;28;20090;-54
2023/05/11 09:19:18;;;;;;;87.32;32.13;;;;;;;14.87;100.00;101562.88;5064546;28;20493;-50
2023/05/11 09:21:44;;;;;;;93.90;32.92;;;;;;;14.95;100.00;101567.34;5064853;28;20071;-43
2023/05/11 09:24:12;;;;;;;83.88;31.08;;;;;;;14.83;100.00;101573.28;5068695;28;20095;-47
2023/05/11 09:26:38;;;;;;;100.93;34.80;;;;;;;14.77;100.00;101573.19;5077596;28;20043;-46
2023/05/11 09:29:03;;;;;;;92.65;33.83;;;;;;;14.77;100.00;101587.59;5086158;28;20507;-50
2023/05/11 09:31:42;;;;;;;95.10;34.95;;;;;;;14.81;100.00;101599.72;5056358;28;20451;-47
2023/05/11 09:34:15;;;;;;;81.13;32.90;;;;;;;14.87;100.00;101608.94;5067303;28;20036;-51
2023/05/11 09:36:42;;;;;;;90.13;35.08;;;;;;;14.92;100.00;101611.94;5072959;28;20032;-50
2023/05/11 09:39:07;;;;;;;87.72;32.60;;;;;;;14.91;100.00;101608.38;5070566;28;20025;-47
2023/05/11 09:41:34;;;;;;;92.72;33.95;;;;;;;14.97;100.00;101593.22;5062075;28;20070;-45
2023/05/11 09:44:12;;;;;;;94.50;35.65;;;;;;;15.08;100.00;101591.84;5072923;28;20035;-45
2023/05/11 09:46:40;;;;;;;81.72;31.73;;;;;;;15.27;100.00;101583.09;5069914;28;20090;-46
2023/05/11 09:49:06;;;;;;;94.90;36.70;;;;;;;15.39;100.00;101594.25;5052408;28;20450;-49
2023/05/11 09:51:34;;;;;;;84.00;32.22;;;;;;;15.41;100.00;101591.34;5071394;28;20032;-48
2023/05/11 09:54:16;;;;;;;76.90;33.50;;;;;;;15.40;100.00;101587.78;5050387;28;20040;-45
2023/05/11 09:56:47;;;;;;;82.43;30.38;;;;;;;15.40;100.00;101587.78;5061306;28;20063;-46
2023/05/11 09:59:18;;;;;;;76.78;29.98;;;;;;;15.36;100.00;101581.91;5070056;28;20133;-49
2023/05/11 10:01:44;;;;;;;81.00;31.15;;;;;;;15.27;100.00;101569.53;5047457;28;20056;-51
2023/05/11 10:04:09;;;;;;;70.05;29.55;;;;;;;15.19;100.00;101574.22;5056399;28;20025;-46
2023/05/11 10:06:48;;;;;;;78.72;31.33;;;;;;;15.05;100.00;101578.69;5058706;28;20462;-48
2023/05/11 10:09:15;;;;;;;74.65;30.73;;;;;;;15.06;100.00;101574.94;5055309;28;20028;-49
2023/05/11 10:11:43;;;;;;;69.57;29.33;;;;;;;15.04;100.00;101575.16;5072923;28;20023;-47
2023/05/11 10:14:12;;;;;;;79.70;31.95;;;;;;;15.00;100.00;101575.72;5072700;28;20029;-45
2023/05/11 10:16:40;;;;;;;76.78;30.83;;;;;;;14.96;100.00;101580.72;5072541;28;20451;-46
2023/05/11 10:19:06;;;;;;;86.25;30.45;;;;;;;14.95;100.00;101584.44;5072653;28;20283;-47
2023/05/11 10:21:32;;;;;;;72.85;27.70;;;;;;;14.97;100.00;101585.09;5071017;28;20025;-47
2023/05/11 10:23:59;;;;;;;71.57;27.97;;;;;;;14.98;100.00;101585.91;5071277;28;20051;-45
2023/05/11 10:26:25;;;;;;;74.20;29.23;;;;;;;14.91;100.00;101588.56;5076894;28;20085;-45
2023/05/11 10:28:53;;;;;;;76.72;29.80;;;;;;;14.87;100.00;101598.09;5090975;28;20520;-48
2023/05/11 10:31:22;;;;;;;72.40;27.67;;;;;;;14.88;100.00;101599.81;5087257;28;20059;-46
2023/05/11 10:33:50;;;;;;;71.25;26.65;;;;;;;14.87;100.00;101587.25;5070849;28;20132;-46
2023/05/11 10:36:17;;;;;;;60.83;25.05;;;;;;;14.84;100.00;101595.78;5070587;28;20028;-46
2023/05/11 10:38:42;;;;;;;55.95;24.38;;;;;;;14.81;100.00;101588.03;5070790;28;20033;-43
2023/05/11 10:41:36;;;;;;;70.05;26.90;;;;;;;14.75;100.00;101588.81;5070096;28;20029;-50
2023/05/11 10:44:42;;;;;;;67.35;27.45;;;;;;;14.82;100.00;101592.41;5070553;28;20044;-44
2023/05/11 10:47:32;;;;;;;63.67;25.35;;;;;;;14.89;100.00;101590.63;5069745;28;20399;-47
2023/05/11 10:50:24;;;;;;;57.25;22.95;;;;;;;14.82;100.00;101587.00;5071448;28;20040;-48
2023/05/11 10:53:01;;;;;;;49.58;20.02;;;;;;;14.76;100.00;101591.31;5070199;28;20496;-47
2023/05/11 10:55:35;;;;;;;53.30;17.63;;;;;;;14.73;100.00;101585.44;5071293;28;20017;-48
2023/05/11 10:58:30;;;;;;;35.47;16.23;;;;;;;14.66;100.00;101588.06;5065446;28;20128;-49
2023/05/11 11:01:20;;;;;;;37.03;15.65;;;;;;;14.62;100.00;101584.91;5056985;28;20103;-48